createdAt,value
2019-05-17T00:02:22.649Z,99813.11
2019-05-17T00:05:28.203Z,99815.82
2019-05-17T00:08:34.942Z,99809.93
2019-05-17T00:11:39.645Z,99812.21
2019-05-17T00:14:44.399Z,99807.22
2019-05-17T00:17:49.586Z,99805.26
2019-05-17T00:20:56.987Z,99799.66
2019-05-17T00:24:01.949Z,99805.27
2019-05-17T00:27:07.259Z,99801.47
2019-05-17T00:30:12.649Z,99800.32
2019-05-17T00:33:17.726Z,99799.97
2019-05-17T00:36:22.470Z,99798.36
2019-05-17T00:39:27.817Z,99796.63
2019-05-17T00:42:32.946Z,99791.41
2019-05-17T00:45:38.515Z,99787.70
2019-05-17T00:48:43.504Z,99784.27
2019-05-17T00:51:48.267Z,99778.89
2019-05-17T00:54:52.987Z,99780.68
2019-05-17T00:58:01.259Z,99771.13
2019-05-17T01:01:08.432Z,99764.37
2019-05-17T01:04:13.336Z,99763.30
2019-05-17T01:07:18.097Z,99755.88
2019-05-17T01:10:23.312Z,99752.55
2019-05-17T01:13:28.783Z,99755.23
2019-05-17T01:16:33.539Z,99750.67
2019-05-17T01:19:41.113Z,99747.04
2019-05-17T01:22:47.404Z,99740.44
2019-05-17T01:25:52.447Z,99739.09
2019-05-17T01:28:57.739Z,99738.62
2019-05-17T01:32:02.856Z,99729.62
2019-05-17T01:35:08.301Z,99725.95
2019-05-17T01:38:13.033Z,99729.84
2019-05-17T01:41:17.885Z,99727.97
2019-05-17T01:44:22.614Z,99725.49
2019-05-17T01:47:27.438Z,99722.66
2019-05-17T01:50:32.181Z,99724.70
2019-05-17T01:53:38.034Z,99725.06
2019-05-17T01:56:46.177Z,99722.45
2019-05-17T01:59:50.932Z,99719.58
2019-05-17T02:02:57.719Z,99714.80
2019-05-17T02:06:02.649Z,99711.59
2019-05-17T02:09:07.755Z,99705.69
2019-05-17T02:12:12.476Z,99705.98
2019-05-17T02:15:18.086Z,99699.48
2019-05-17T02:18:22.879Z,99696.05
2019-05-17T02:21:27.650Z,99695.23
2019-05-17T02:24:32.540Z,99699.09
2019-05-17T02:27:41.266Z,99698.98
2019-05-17T02:30:45.718Z,99691.36
2019-05-17T02:33:53.403Z,99687.64
2019-05-17T02:36:57.189Z,99683.84
2019-05-17T02:40:07.706Z,99686.78
2019-05-17T02:43:09.144Z,99683.78
2019-05-17T02:46:13.946Z,99680.34
2019-05-17T02:49:19.025Z,99680.51
2019-05-17T02:52:25.046Z,99680.02
2019-05-17T02:55:32.248Z,99679.59
2019-05-17T02:58:36.224Z,99678.34
2019-05-17T03:01:44.167Z,99682.36
2019-05-17T03:04:48.190Z,99677.64
2019-05-17T03:07:53.090Z,99679.88
2019-05-17T03:10:57.918Z,99677.48
2019-05-17T03:14:04.239Z,99674.90
2019-05-17T03:17:09.972Z,99667.56
2019-05-17T03:20:15.341Z,99671.23
2019-05-17T03:23:23.194Z,99663.53
2019-05-17T03:26:26.662Z,99668.70
2019-05-17T03:29:33.447Z,99675.66
2019-05-17T03:32:46.447Z,99668.14
2019-05-17T03:35:47.343Z,99673.90
2019-05-17T03:38:53.410Z,99669.30
2019-05-17T03:41:58.912Z,99676.72
2019-05-17T03:45:03.886Z,99676.66
2019-05-17T03:48:08.738Z,99680.83
2019-05-17T03:51:13.537Z,99672.59
2019-05-17T03:54:22.434Z,99672.04
2019-05-17T03:57:26.162Z,99674.58
2019-05-17T04:00:34.862Z,99665.36
2019-05-17T04:03:37.601Z,99661.77
2019-05-17T04:06:43.589Z,99665.81
2019-05-17T04:09:49.109Z,99663.83
2019-05-17T04:12:53.951Z,99656.95
2019-05-17T04:15:58.724Z,99664.87
2019-05-17T04:19:03.764Z,99670.08
2019-05-17T04:22:08.600Z,99664.00
2019-05-17T04:25:14.436Z,99666.64
2019-05-17T04:28:22.640Z,99672.91
2019-05-17T04:31:26.127Z,99673.41
2019-05-17T04:34:33.571Z,99682.81
2019-05-17T04:37:38.685Z,99680.28
2019-05-17T04:40:43.750Z,99683.78
2019-05-17T04:43:48.485Z,99685.09
2019-05-17T04:46:54.614Z,99676.09
2019-05-17T04:49:59.413Z,99683.59
2019-05-17T04:53:04.365Z,99684.05
2019-05-17T04:56:09.419Z,99683.41
2019-05-17T04:59:15.327Z,99683.02
2019-05-17T05:02:23.398Z,99682.78
2019-05-17T05:05:26.581Z,99682.95
2019-05-17T05:08:33.028Z,99679.45
2019-05-17T05:11:51.928Z,99677.80
2019-05-17T05:14:44.313Z,99681.14
2019-05-17T05:17:49.067Z,99673.91
2019-05-17T05:20:54.891Z,99671.72
2019-05-17T05:24:02.323Z,99664.62
2019-05-17T05:27:06.800Z,99662.97
2019-05-17T05:30:12.614Z,99665.17
2019-05-17T05:33:18.093Z,99658.87
2019-05-17T05:36:23.103Z,99661.80
2019-05-17T05:39:27.873Z,99660.27
2019-05-17T05:42:32.740Z,99663.09
2019-05-17T05:45:37.803Z,99664.42
2019-05-17T05:48:42.947Z,99660.27
2019-05-17T05:51:48.707Z,99666.67
2019-05-17T05:54:53.773Z,99667.61
2019-05-17T05:57:58.547Z,99660.81
2019-05-17T06:01:03.536Z,99664.36
2019-05-17T06:04:08.377Z,99664.22
2019-05-17T06:07:13.519Z,99668.02
2019-05-17T06:10:18.747Z,99668.41
2019-05-17T06:13:23.890Z,99662.59
2019-05-17T06:16:28.707Z,99663.59
2019-05-17T06:19:33.487Z,99661.98
2019-05-17T06:22:38.232Z,99656.00
2019-05-17T06:25:43.992Z,99656.79
2019-05-17T06:28:48.933Z,99653.05
2019-05-17T06:31:54.021Z,99655.53
2019-05-17T06:40:32.312Z,99648.78
2019-05-17T06:43:41.490Z,99650.94
2019-05-17T06:46:47.860Z,99649.55
2019-05-17T06:49:53.969Z,99650.14
2019-05-17T06:53:02.910Z,99647.48
2019-05-17T06:56:07.081Z,99646.36
2019-05-17T06:59:12.163Z,99643.92
2019-05-17T07:02:20.786Z,99641.72
2019-05-17T07:05:29.683Z,99638.31
2019-05-17T07:08:40.223Z,99641.33
2019-05-17T07:12:30.668Z,99629.77
2019-05-17T07:15:47.939Z,99630.73
2019-05-17T07:19:35.204Z,99622.64
2019-05-17T07:26:12.755Z,99617.59
2019-05-17T07:29:19.409Z,99613.90
2019-05-17T07:32:24.307Z,99615.10
2019-05-17T07:35:30.034Z,99616.01
2019-05-17T07:38:35.317Z,99605.84
2019-05-17T07:41:45.746Z,99607.40
2019-05-17T07:44:57.021Z,99601.89
2019-05-17T07:48:03.101Z,99599.25
2019-05-17T07:51:10.128Z,99588.11
2019-05-17T07:54:19.694Z,99584.31
2019-05-17T07:57:24.871Z,99573.08
2019-05-17T08:00:51.427Z,99560.96
2019-05-17T08:04:02.355Z,99560.96
2019-05-17T08:07:10.411Z,99562.45
2019-05-17T08:10:23.882Z,99558.78
2019-05-17T08:13:39.853Z,99548.34
2019-05-17T08:16:46.446Z,99550.59
2019-05-17T08:19:51.306Z,99538.63
2019-05-17T08:23:05.124Z,99539.77
2019-05-17T08:26:13.837Z,99539.77
2019-05-17T08:29:30.511Z,99539.02
2019-05-17T08:33:02.704Z,99551.75
2019-05-17T08:36:23.050Z,99536.63
2019-05-17T08:40:01.284Z,99544.15
2019-05-17T08:43:16.491Z,99537.66
2019-05-17T08:46:27.004Z,99526.78
2019-05-17T08:49:35.126Z,99535.78
2019-05-17T08:52:50.415Z,99519.88
2019-05-17T08:56:01.923Z,99527.05
2019-05-17T08:59:09.431Z,99526.19
2019-05-17T09:02:14.700Z,99526.19
2019-05-17T09:05:30.078Z,99521.78
2019-05-17T09:08:34.241Z,99521.66
2019-05-17T09:11:39.614Z,99513.08
2019-05-17T09:14:44.879Z,99504.73
2019-05-17T09:17:50.029Z,99508.25
2019-05-17T09:21:21.702Z,99496.80
2019-05-17T09:24:26.838Z,99493.89
2019-05-17T09:27:31.953Z,99489.91
2019-05-17T09:30:36.889Z,99488.61
2019-05-17T09:33:49.721Z,99479.62
2019-05-17T09:36:54.784Z,99483.03
2019-05-17T09:40:00.093Z,99475.36
2019-05-17T09:43:05.898Z,99482.45
2019-05-17T09:46:11.143Z,99471.52
2019-05-17T09:49:27.288Z,99469.84
2019-05-17T09:52:33.187Z,99464.38
2019-05-17T09:55:39.774Z,99470.81
2019-05-17T09:58:44.800Z,99467.03
2019-05-17T10:05:31.309Z,99467.18
2019-05-17T10:08:38.929Z,99457.37
2019-05-17T10:11:55.602Z,99448.02
2019-05-17T10:15:04.501Z,99459.09
2019-05-17T10:18:46.875Z,99455.42
2019-05-17T10:29:55.420Z,99448.69
2019-05-17T10:33:15.069Z,99427.30
2019-05-17T10:36:34.966Z,99436.03
2019-05-17T10:39:57.742Z,99438.05
2019-05-17T10:43:22.726Z,99432.56
2019-05-17T10:47:19.501Z,99429.08
2019-05-17T10:51:09.652Z,99426.33
2019-05-17T10:54:20.694Z,99424.06
2019-05-17T10:57:32.294Z,99423.21
2019-05-17T11:00:41.180Z,99426.72
2019-05-17T11:03:50.252Z,99424.28
2019-05-17T11:07:38.092Z,99413.75
2019-05-17T11:10:44.949Z,99405.13
2019-05-17T11:13:53.814Z,99405.89
2019-05-17T11:17:02.685Z,99407.39
2019-05-17T11:24:05.678Z,99406.05
2019-05-17T11:27:10.682Z,99410.08
2019-05-17T11:30:15.993Z,99400.09
2019-05-17T11:33:20.721Z,99402.87
2019-05-17T11:36:25.722Z,99407.50
2019-05-17T11:39:30.731Z,99406.36
2019-05-17T11:42:35.824Z,99400.80
2019-05-17T11:45:40.797Z,99392.84
2019-05-17T11:48:45.565Z,99398.40
2019-05-17T11:51:50.304Z,99399.80
2019-05-17T11:54:55.207Z,99396.61
2019-05-17T11:57:59.926Z,99396.17
2019-05-17T12:01:04.977Z,99391.11
2019-05-17T12:04:10.068Z,99380.86
2019-05-17T12:07:14.998Z,99378.72
2019-05-17T12:10:20.069Z,99383.38
2019-05-17T12:13:25.260Z,99374.41
2019-05-17T12:16:30.373Z,99376.78
2019-05-17T12:19:37.276Z,99368.23
2019-05-17T12:22:42.860Z,99363.53
2019-05-17T12:25:47.904Z,99371.47
2019-05-17T12:28:53.002Z,99368.81
2019-05-17T12:31:58.018Z,99370.53
2019-05-17T12:35:03.395Z,99365.60
2019-05-17T12:38:08.372Z,99365.78
2019-05-17T12:41:13.123Z,99369.84
2019-05-17T12:44:17.872Z,99362.70
2019-05-17T12:47:22.601Z,99363.29
2019-05-17T12:50:27.359Z,99361.28
2019-05-17T12:53:32.369Z,99362.89
2019-05-17T12:56:37.139Z,99363.84
2019-05-17T12:59:41.865Z,99358.23
2019-05-17T13:02:46.616Z,99356.98
2019-05-17T13:05:51.416Z,99356.23
2019-05-17T13:08:56.471Z,99353.27
2019-05-17T13:12:01.203Z,99345.98
2019-05-17T13:15:06.670Z,99349.33
2019-05-17T13:18:11.690Z,99344.83
2019-05-17T13:21:16.803Z,99335.89
2019-05-17T13:24:21.609Z,99339.90
2019-05-17T13:27:27.561Z,99332.53
2019-05-17T13:30:32.754Z,99328.77
2019-05-17T13:33:37.821Z,99330.02
2019-05-17T13:36:42.625Z,99326.95
2019-05-17T13:39:47.813Z,99328.42
2019-05-17T13:42:53.004Z,99326.48
2019-05-17T13:45:57.793Z,99326.19
2019-05-17T13:49:03.778Z,99318.72
2019-05-17T13:52:08.634Z,99315.14
2019-05-17T13:55:13.822Z,99309.27
2019-05-17T13:58:18.666Z,99295.28
2019-05-17T14:01:23.418Z,99295.94
2019-05-17T14:04:28.501Z,99296.28
2019-05-17T14:07:33.273Z,99289.89
2019-05-17T14:10:38.033Z,99294.06
2019-05-17T14:13:42.747Z,99298.09
2019-05-17T14:16:47.519Z,99293.10
2019-05-17T14:19:52.566Z,99294.14
2019-05-17T14:22:58.177Z,99292.64
2019-05-17T14:26:03.379Z,99285.05
2019-05-17T14:29:08.467Z,99295.42
2019-05-17T14:32:14.258Z,99294.56
2019-05-17T14:35:19.699Z,99289.08
2019-05-17T14:38:24.460Z,99291.70
2019-05-17T14:41:29.591Z,99292.27
2019-05-17T14:44:34.418Z,99295.18
2019-05-17T14:47:39.416Z,99285.98
2019-05-17T14:50:44.170Z,99277.95
2019-05-17T14:53:49.348Z,99276.13
2019-05-17T14:56:54.288Z,99275.30
2019-05-17T14:59:59.622Z,99280.03
2019-05-17T15:03:07.456Z,99286.71
2019-05-17T15:06:11.236Z,99279.34
2019-05-17T15:09:15.997Z,99275.38
2019-05-17T15:12:28.158Z,99266.19
2019-05-17T15:15:28.057Z,99265.15
2019-05-17T15:18:33.143Z,99259.49
2019-05-17T15:21:38.129Z,99263.03
2019-05-17T15:24:42.942Z,99263.56
2019-05-17T15:27:47.904Z,99254.39
2019-05-17T15:30:52.723Z,99254.54
2019-05-17T15:33:57.558Z,99254.53
2019-05-17T15:37:02.363Z,99255.18
2019-05-17T15:40:07.701Z,99256.72
2019-05-17T15:43:12.773Z,99256.22
2019-05-17T15:46:17.603Z,99260.26
2019-05-17T15:49:22.809Z,99254.69
2019-05-17T15:52:27.577Z,99253.75
2019-05-17T15:55:32.477Z,99259.63
2019-05-17T15:58:37.490Z,99251.84
2019-05-17T16:01:42.586Z,99252.69
2019-05-17T16:04:47.576Z,99246.14
2019-05-17T16:07:53.705Z,99247.83
2019-05-17T16:10:58.602Z,99253.19
2019-05-17T16:14:04.093Z,99247.30
2019-05-17T16:17:08.932Z,99243.42
2019-05-17T16:20:16.725Z,99241.42
2019-05-17T16:23:23.833Z,99238.92
2019-05-17T16:26:28.699Z,99238.03
2019-05-17T16:29:33.726Z,99237.48
2019-05-17T16:32:38.863Z,99229.27
2019-05-17T16:35:43.912Z,99225.53
2019-05-17T16:38:49.582Z,99220.38
2019-05-17T16:41:54.487Z,99224.16
2019-05-17T16:44:59.275Z,99222.63
2019-05-17T16:48:04.417Z,99219.11
2019-05-17T16:51:09.480Z,99224.77
2019-05-17T16:54:14.343Z,99230.12
2019-05-17T16:57:19.176Z,99227.92
2019-05-17T17:00:33.658Z,99234.64
2019-05-17T17:03:44.152Z,99229.97
2019-05-17T17:06:46.382Z,99231.14
2019-05-17T17:09:51.234Z,99236.95
2019-05-17T17:12:56.144Z,99236.91
2019-05-17T17:16:00.969Z,99242.95
2019-05-17T17:19:07.670Z,99237.73
2019-05-17T17:22:12.924Z,99241.17
2019-05-17T17:25:17.905Z,99243.50
2019-05-17T17:28:25.512Z,99243.78
2019-05-17T17:31:29.795Z,99254.67
2019-05-17T17:34:34.934Z,99259.78
2019-05-17T17:37:39.789Z,99266.56
2019-05-17T17:40:44.579Z,99265.92
2019-05-17T17:43:57.917Z,99273.31
2019-05-17T17:47:00.562Z,99278.39
2019-05-17T17:50:05.961Z,99278.69
2019-05-17T17:53:10.873Z,99275.86
2019-05-17T17:56:15.942Z,99269.53
2019-05-17T17:59:21.073Z,99271.63
2019-05-17T18:02:25.905Z,99268.39
2019-05-17T18:05:30.732Z,99278.59
2019-05-17T18:08:35.795Z,99284.73
2019-05-17T18:11:40.991Z,99280.30
2019-05-17T18:14:45.805Z,99285.56
2019-05-17T18:17:50.620Z,99283.92
2019-05-17T18:20:55.999Z,99277.73
2019-05-17T18:24:01.377Z,99283.52
2019-05-17T18:27:06.379Z,99283.03
2019-05-17T18:30:11.611Z,99283.56
2019-05-17T18:33:16.351Z,99290.28
2019-05-17T18:36:21.238Z,99293.23
2019-05-17T18:39:26.081Z,99289.47
2019-05-17T18:42:30.984Z,99286.02
2019-05-17T18:45:36.269Z,99296.34
2019-05-17T18:48:41.258Z,99294.05
2019-05-17T18:51:46.138Z,99294.02
2019-05-17T18:54:51.662Z,99293.90
2019-05-17T18:57:56.644Z,99290.29
2019-05-17T19:01:02.093Z,99293.23
2019-05-17T19:04:07.402Z,99288.86
2019-05-17T19:07:12.287Z,99288.95
2019-05-17T19:10:17.373Z,99288.38
2019-05-17T19:13:25.127Z,99297.88
2019-05-17T19:16:30.297Z,99299.33
2019-05-17T19:19:36.556Z,99295.36
2019-05-17T19:22:41.465Z,99303.00
2019-05-17T19:25:46.549Z,99307.45
2019-05-17T19:28:54.369Z,99320.08
2019-05-17T19:31:59.187Z,99330.92
2019-05-17T19:35:04.310Z,99327.63
2019-05-17T19:38:09.517Z,99340.52
2019-05-17T19:41:14.811Z,99349.91
2019-05-17T19:44:21.383Z,99352.38
2019-05-17T19:47:26.190Z,99354.81
2019-05-17T19:50:31.630Z,99350.23
2019-05-17T19:53:36.493Z,99351.91
2019-05-17T19:56:41.393Z,99351.69
2019-05-17T19:59:46.249Z,99356.73
2019-05-17T20:02:52.120Z,99354.91
2019-05-17T20:05:57.261Z,99349.58
2019-05-17T20:09:02.152Z,99342.66
2019-05-17T20:12:08.726Z,99360.10
2019-05-17T20:15:17.931Z,99359.83
2019-05-17T20:18:20.354Z,99351.94
2019-05-17T20:21:25.450Z,99349.28
2019-05-17T20:24:30.605Z,99352.58
2019-05-17T20:27:35.399Z,99354.28
2019-05-17T20:30:40.578Z,99349.92
2019-05-17T20:33:45.893Z,99350.64
2019-05-17T20:36:50.925Z,99355.95
2019-05-17T20:39:56.143Z,99351.93
2019-05-17T20:43:00.963Z,99354.47
2019-05-17T20:46:05.910Z,99356.98
2019-05-17T20:49:11.187Z,99354.64
2019-05-17T20:52:16.559Z,99359.36
2019-05-17T20:55:23.307Z,99359.34
2019-05-17T20:58:28.579Z,99364.28
2019-05-17T21:01:33.346Z,99364.28
2019-05-17T21:04:38.188Z,99369.25
2019-05-17T21:07:43.161Z,99375.20
2019-05-17T21:10:47.967Z,99380.25
2019-05-17T21:13:52.763Z,99371.08
2019-05-17T21:16:57.624Z,99379.61
2019-05-17T21:20:02.543Z,99389.34
2019-05-17T21:23:07.877Z,99360.32
2019-05-17T21:26:12.724Z,99378.15
2019-05-17T21:29:17.562Z,99378.83
2019-05-17T21:32:22.284Z,99376.24
2019-05-17T21:35:27.425Z,99380.00
2019-05-17T21:38:35.676Z,99372.22
2019-05-17T21:41:40.461Z,99372.22
2019-05-17T21:44:45.225Z,99379.62
2019-05-17T21:47:50.335Z,99377.70
2019-05-17T21:50:55.103Z,99377.70
2019-05-17T21:53:59.895Z,99375.95
2019-05-17T21:57:04.922Z,99398.63
2019-05-17T22:00:12.711Z,99398.63
2019-05-17T22:03:22.520Z,99394.69
2019-05-17T22:06:27.675Z,99412.91
2019-05-17T22:09:32.560Z,99416.56
2019-05-17T22:12:37.534Z,99419.69
2019-05-17T22:15:42.972Z,99422.81
2019-05-17T22:18:47.801Z,99428.27
2019-05-17T22:21:52.648Z,99428.66
2019-05-17T22:24:57.399Z,99430.80
2019-05-17T22:28:02.187Z,99434.20
2019-05-17T22:31:07.297Z,99430.41
2019-05-17T22:34:12.125Z,99428.13
2019-05-17T22:37:17.744Z,99432.53
2019-05-17T22:40:22.514Z,99433.11
2019-05-17T22:43:27.593Z,99443.86
2019-05-17T22:46:36.458Z,99443.30
2019-05-17T22:49:40.302Z,99432.20
2019-05-17T22:52:46.274Z,99433.75
2019-05-17T22:55:51.022Z,99428.22
2019-05-17T22:58:56.475Z,99428.22
2019-05-17T23:02:01.347Z,99433.52
2019-05-17T23:05:06.543Z,99431.78
2019-05-17T23:08:11.378Z,99431.13
2019-05-17T23:11:16.159Z,99423.42
2019-05-17T23:14:21.258Z,99404.69
2019-05-17T23:17:26.342Z,99404.69
2019-05-17T23:20:31.413Z,99407.88
2019-05-17T23:23:36.668Z,99413.50
2019-05-17T23:26:41.432Z,99412.65
2019-05-17T23:29:46.520Z,99410.69
2019-05-17T23:32:51.261Z,99421.30
2019-05-17T23:35:56.584Z,99416.22
2019-05-17T23:39:01.501Z,99417.61
2019-05-17T23:42:07.867Z,99419.34
2019-05-17T23:45:12.974Z,99419.34
2019-05-17T23:48:17.743Z,99420.89
2019-05-17T23:51:22.560Z,99420.89
2019-05-17T23:54:27.602Z,99429.08
2019-05-17T23:57:32.480Z,99432.69
